createdAt,value
2018-05-24T00:00:08.052Z,1018.44
2018-05-24T00:01:18.045Z,1018.43
2018-05-24T00:02:27.765Z,1018.44
2018-05-24T00:03:37.735Z,1018.46
2018-05-24T00:04:47.188Z,1018.48
2018-05-24T00:05:56.631Z,1018.45
2018-05-24T00:07:06.617Z,1018.51
2018-05-24T00:08:16.345Z,1018.51
2018-05-24T00:09:26.315Z,1018.51
2018-05-24T00:10:36.042Z,1018.53
2018-05-24T00:11:45.775Z,1018.51
2018-05-24T00:12:55.761Z,1018.51
2018-05-24T00:14:05.737Z,1018.51
2018-05-24T00:15:15.704Z,1018.53
2018-05-24T00:16:25.504Z,1018.55
2018-05-24T00:17:35.233Z,1018.53
2018-05-24T00:18:45.215Z,1018.53
2018-05-24T00:19:55.000Z,1018.57
2018-05-24T00:21:05.089Z,1018.54
2018-05-24T00:22:15.059Z,1018.55
2018-05-24T00:23:25.027Z,1018.55
2018-05-24T00:24:34.746Z,1018.55
2018-05-24T00:25:44.457Z,1018.53
2018-05-24T00:26:54.195Z,1018.52
2018-05-24T00:28:03.900Z,1018.54
2018-05-24T00:29:13.888Z,1018.59
2018-05-24T00:30:23.450Z,1018.58
2018-05-24T00:31:33.158Z,1018.59
2018-05-24T00:32:42.896Z,1018.57
2018-05-24T00:33:52.861Z,1018.61
2018-05-24T00:35:02.575Z,1018.63
2018-05-24T00:36:12.570Z,1018.66
2018-05-24T00:37:22.301Z,1018.67
2018-05-24T00:38:32.272Z,1018.63
2018-05-24T00:39:42.001Z,1018.65
2018-05-24T00:40:51.718Z,1018.66
2018-05-24T00:42:01.683Z,1018.66
2018-05-24T00:43:10.892Z,1018.68
2018-05-24T00:44:20.865Z,1018.67
2018-05-24T00:45:30.841Z,1018.66
2018-05-24T00:46:40.817Z,1018.65
2018-05-24T00:47:50.522Z,1018.64
2018-05-24T00:49:00.490Z,1018.69
2018-05-24T00:50:10.224Z,1018.68
2018-05-24T00:51:20.200Z,1018.67
2018-05-24T00:52:30.256Z,1018.71
2018-05-24T00:53:39.974Z,1018.68
2018-05-24T00:54:49.695Z,1018.7
2018-05-24T00:55:59.421Z,1018.75
2018-05-24T00:57:09.391Z,1018.68
2018-05-24T00:58:19.399Z,1018.75
2018-05-24T00:59:29.375Z,1018.72
2018-05-24T01:00:39.352Z,1018.72
2018-05-24T01:01:49.308Z,1018.73
2018-05-24T01:02:59.032Z,1018.72
2018-05-24T01:04:09.027Z,1018.68
2018-05-24T01:05:18.744Z,1018.69
2018-05-24T01:06:28.715Z,1018.71
2018-05-24T01:07:38.695Z,1018.72
2018-05-24T01:08:48.663Z,1018.73
2018-05-24T01:09:58.640Z,1018.77
2018-05-24T01:11:08.622Z,1018.74
2018-05-24T01:12:18.609Z,1018.77
2018-05-24T01:13:28.596Z,1018.74
2018-05-24T01:14:38.557Z,1018.72
2018-05-24T01:15:48.624Z,1018.74
2018-05-24T01:16:58.821Z,1018.71
2018-05-24T01:18:08.563Z,1018.75
2018-05-24T01:19:18.538Z,1018.76
2018-05-24T01:20:28.254Z,1018.69
2018-05-24T01:21:38.245Z,1018.71
2018-05-24T01:22:47.710Z,1018.69
2018-05-24T01:23:57.670Z,1018.72
2018-05-24T01:25:07.369Z,1018.73
2018-05-24T01:26:17.340Z,1018.72
2018-05-24T01:27:27.318Z,1018.74
2018-05-24T01:28:37.287Z,1018.77
2018-05-24T01:29:46.732Z,1018.8
2018-05-24T01:30:56.695Z,1018.79
2018-05-24T01:32:06.661Z,1018.8
2018-05-24T01:33:16.641Z,1018.79
2018-05-24T01:34:26.360Z,1018.81
2018-05-24T01:35:36.342Z,1018.77
2018-05-24T01:36:46.325Z,1018.76
2018-05-24T01:37:56.292Z,1018.75
2018-05-24T01:39:05.748Z,1018.79
2018-05-24T01:40:15.467Z,1018.8
2018-05-24T01:41:25.455Z,1018.78
2018-05-24T01:42:35.192Z,1018.75
2018-05-24T01:43:45.171Z,1018.73
2018-05-24T01:44:55.182Z,1018.71
2018-05-24T01:46:04.916Z,1018.79
2018-05-24T01:47:14.889Z,1018.74
2018-05-24T01:48:24.609Z,1018.76
2018-05-24T01:49:34.588Z,1018.74
2018-05-24T01:50:44.589Z,1018.72
2018-05-24T01:51:54.049Z,1018.75
2018-05-24T01:53:03.759Z,1018.78
2018-05-24T01:54:13.480Z,1018.73
2018-05-24T01:55:23.456Z,1018.78
2018-05-24T01:56:33.186Z,1018.77
2018-05-24T01:57:43.153Z,1018.79
2018-05-24T01:58:52.877Z,1018.78
2018-05-24T02:00:02.605Z,1018.77
2018-05-24T02:01:12.314Z,1018.81
2018-05-24T02:02:22.294Z,1018.75
2018-05-24T02:03:32.295Z,1018.77
2018-05-24T02:04:42.264Z,1018.72
2018-05-24T02:05:52.261Z,1018.7
2018-05-24T02:07:02.226Z,1018.71
2018-05-24T02:08:11.933Z,1018.74
2018-05-24T02:09:21.640Z,1018.71
2018-05-24T02:10:31.613Z,1018.7
2018-05-24T02:11:41.588Z,1018.7
2018-05-24T02:12:51.570Z,1018.71
2018-05-24T02:14:01.560Z,1018.68
2018-05-24T02:15:11.536Z,1018.62
2018-05-24T02:16:21.252Z,1018.64
2018-05-24T02:17:30.957Z,1018.59
2018-05-24T02:18:40.923Z,1018.61
2018-05-24T02:19:50.877Z,1018.61
2018-05-24T02:21:00.562Z,1018.57
2018-05-24T02:22:10.274Z,1018.65
2018-05-24T02:23:20.235Z,1018.62
2018-05-24T02:24:30.218Z,1018.62
2018-05-24T02:25:40.402Z,1018.6
2018-05-24T02:26:50.359Z,1018.54
2018-05-24T02:28:00.325Z,1018.61
2018-05-24T02:29:10.345Z,1018.62
2018-05-24T02:30:20.072Z,1018.55
2018-05-24T02:31:30.050Z,1018.5
2018-05-24T02:32:39.763Z,1018.57
2018-05-24T02:33:49.491Z,1018.56
2018-05-24T02:34:59.490Z,1018.53
2018-05-24T02:36:09.476Z,1018.52
2018-05-24T02:37:19.443Z,1018.52
2018-05-24T02:38:29.415Z,1018.49
2018-05-24T02:39:39.387Z,1018.47
2018-05-24T02:40:49.451Z,1018.53
2018-05-24T02:41:58.906Z,1018.49
2018-05-24T02:43:08.876Z,1018.48
2018-05-24T02:44:18.358Z,1018.44
2018-05-24T02:45:28.340Z,1018.45
2018-05-24T02:46:38.318Z,1018.39
2018-05-24T02:47:48.289Z,1018.41
2018-05-24T02:48:58.263Z,1018.37
2018-05-24T02:50:08.226Z,1018.4
2018-05-24T02:51:18.208Z,1018.39
2018-05-24T02:52:28.187Z,1018.41
2018-05-24T02:53:38.172Z,1018.41
2018-05-24T02:54:48.143Z,1018.46
2018-05-24T02:55:57.854Z,1018.46
2018-05-24T02:57:07.826Z,1018.41
2018-05-24T02:58:17.281Z,1018.45
2018-05-24T02:59:27.265Z,1018.5
2018-05-24T03:00:37.233Z,1018.46
2018-05-24T03:01:47.220Z,1018.48
2018-05-24T03:02:56.891Z,1018.47
2018-05-24T03:04:06.864Z,1018.45
2018-05-24T03:05:16.838Z,1018.47
2018-05-24T03:06:26.543Z,1018.48
2018-05-24T03:07:36.520Z,1018.5
2018-05-24T03:08:46.244Z,1018.49
2018-05-24T03:09:55.968Z,1018.5
2018-05-24T03:11:05.938Z,1018.5
2018-05-24T03:12:15.660Z,1018.52
2018-05-24T03:13:25.647Z,1018.49
2018-05-24T03:14:35.375Z,1018.45
2018-05-24T03:15:44.837Z,1018.47
2018-05-24T03:16:54.824Z,1018.45
2018-05-24T03:18:04.795Z,1018.45
2018-05-24T03:19:14.766Z,1018.42
2018-05-24T03:20:24.783Z,1018.38
2018-05-24T03:21:34.493Z,1018.4
2018-05-24T03:22:44.457Z,1018.37
2018-05-24T03:23:54.174Z,1018.38
2018-05-24T03:25:03.893Z,1018.38
2018-05-24T03:26:13.862Z,1018.36
2018-05-24T03:27:23.309Z,1018.45
2018-05-24T03:28:33.023Z,1018.45
2018-05-24T03:29:42.989Z,1018.44
2018-05-24T03:30:52.950Z,1018.46
2018-05-24T03:32:02.938Z,1018.42
2018-05-24T03:33:12.655Z,1018.42
2018-05-24T03:34:22.367Z,1018.45
2018-05-24T03:35:32.093Z,1018.44
2018-05-24T03:36:41.799Z,1018.43
2018-05-24T03:37:51.782Z,1018.44
2018-05-24T03:39:01.754Z,1018.4
2018-05-24T03:40:11.458Z,1018.38
2018-05-24T03:41:21.187Z,1018.43
2018-05-24T03:42:30.900Z,1018.43
2018-05-24T03:43:40.870Z,1018.45
2018-05-24T03:44:50.843Z,1018.46
2018-05-24T03:46:00.562Z,1018.4
2018-05-24T03:47:10.277Z,1018.43
2018-05-24T03:48:20.000Z,1018.45
2018-05-24T03:49:29.978Z,1018.44
2018-05-24T03:50:39.683Z,1018.43
2018-05-24T03:51:49.731Z,1018.47
2018-05-24T03:52:59.469Z,1018.48
2018-05-24T03:54:09.450Z,1018.47
2018-05-24T03:55:19.426Z,1018.45
2018-05-24T03:56:29.402Z,1018.5
2018-05-24T03:57:39.464Z,1018.46
2018-05-24T03:58:49.456Z,1018.47
2018-05-24T03:59:59.438Z,1018.52
2018-05-24T04:01:09.160Z,1018.55
2018-05-24T04:02:18.874Z,1018.54
2018-05-24T04:03:28.589Z,1018.53
2018-05-24T04:04:38.315Z,1018.6
2018-05-24T04:05:48.103Z,1018.58
2018-05-24T04:06:58.117Z,1018.58
2018-05-24T04:08:08.100Z,1018.57
2018-05-24T04:09:18.073Z,1018.59
2018-05-24T04:10:28.083Z,1018.56
2018-05-24T04:11:37.788Z,1018.55
2018-05-24T04:12:47.240Z,1018.56
2018-05-24T04:13:57.214Z,1018.58
2018-05-24T04:15:07.190Z,1018.58
2018-05-24T04:16:17.171Z,1018.55
2018-05-24T04:17:27.143Z,1018.55
2018-05-24T04:18:37.127Z,1018.5
2018-05-24T04:19:47.097Z,1018.48
2018-05-24T04:20:56.798Z,1018.49
2018-05-24T04:22:06.779Z,1018.5
2018-05-24T04:23:16.532Z,1018.48
2018-05-24T04:24:26.799Z,1018.49
2018-05-24T04:25:36.768Z,1018.49
2018-05-24T04:26:46.745Z,1018.47
2018-05-24T04:27:56.815Z,1018.55
2018-05-24T04:29:06.792Z,1018.52
2018-05-24T04:30:16.779Z,1018.54
2018-05-24T04:31:26.757Z,1018.59
2018-05-24T04:32:36.471Z,1018.59
2018-05-24T04:33:46.197Z,1018.58
2018-05-24T04:34:56.272Z,1018.64
2018-05-24T04:36:06.264Z,1018.6
2018-05-24T04:37:16.244Z,1018.67
2018-05-24T04:38:25.947Z,1018.67
2018-05-24T04:39:35.665Z,1018.66
2018-05-24T04:40:45.641Z,1018.66
2018-05-24T04:41:55.599Z,1018.65
2018-05-24T04:43:05.575Z,1018.71
2018-05-24T04:44:15.285Z,1018.68
2018-05-24T04:45:25.348Z,1018.65
2018-05-24T04:46:35.749Z,1018.72
2018-05-24T04:47:45.729Z,1018.71
2018-05-24T04:48:55.698Z,1018.72
2018-05-24T04:50:04.895Z,1018.71
2018-05-24T04:51:14.877Z,1018.74
2018-05-24T04:52:24.853Z,1018.75
2018-05-24T04:53:34.851Z,1018.75
2018-05-24T04:54:44.815Z,1018.75
2018-05-24T04:55:54.809Z,1018.8
2018-05-24T04:57:04.795Z,1018.73
2018-05-24T04:58:14.845Z,1018.8
2018-05-24T04:59:24.819Z,1018.79
2018-05-24T05:00:34.548Z,1018.74
2018-05-24T05:01:44.532Z,1018.83
2018-05-24T05:02:54.597Z,1018.8
2018-05-24T05:04:04.604Z,1018.77
2018-05-24T05:05:14.586Z,1018.78
2018-05-24T05:06:24.554Z,1018.8
2018-05-24T05:07:34.548Z,1018.84
2018-05-24T05:08:44.514Z,1018.81
2018-05-24T05:09:54.489Z,1018.8
2018-05-24T05:11:04.479Z,1018.83
2018-05-24T05:12:14.454Z,1018.89
2018-05-24T05:13:24.482Z,1018.86
2018-05-24T05:14:34.438Z,1018.86
2018-05-24T05:15:44.758Z,1018.88
2018-05-24T05:16:54.738Z,1018.87
2018-05-24T05:18:04.735Z,1018.91
2018-05-24T05:19:14.474Z,1018.89
2018-05-24T05:20:24.622Z,1018.85
2018-05-24T05:21:34.593Z,1018.9
2018-05-24T05:22:44.565Z,1018.87
2018-05-24T05:23:54.557Z,1018.91
2018-05-24T05:25:04.595Z,1018.91
2018-05-24T05:26:14.705Z,1018.89
2018-05-24T05:27:24.683Z,1018.87
2018-05-24T05:28:34.657Z,1018.94
2018-05-24T05:29:44.636Z,1018.83
2018-05-24T05:30:54.627Z,1018.89
2018-05-24T05:32:04.620Z,1018.88
2018-05-24T05:33:14.606Z,1018.96
2018-05-24T05:34:24.331Z,1018.89
2018-05-24T05:35:34.386Z,1018.92
2018-05-24T05:36:44.376Z,1018.91
2018-05-24T05:37:54.357Z,1018.9
2018-05-24T05:39:04.350Z,1018.93
2018-05-24T05:40:13.569Z,1018.89
2018-05-24T05:41:23.557Z,1018.88
2018-05-24T05:42:33.272Z,1018.91
2018-05-24T05:43:42.990Z,1018.88
2018-05-24T05:44:52.983Z,1018.91
2018-05-24T05:46:02.990Z,1018.92
2018-05-24T05:47:13.048Z,1018.88
2018-05-24T05:48:23.028Z,1018.92
2018-05-24T05:49:32.759Z,1018.91
2018-05-24T05:50:42.736Z,1018.91
2018-05-24T05:51:52.726Z,1018.94
2018-05-24T05:53:03.075Z,1018.93
2018-05-24T05:54:13.048Z,1018.95
2018-05-24T05:55:23.017Z,1018.96
2018-05-24T05:56:32.996Z,1018.9
2018-05-24T05:57:42.712Z,1018.93
2018-05-24T05:58:52.741Z,1018.94
2018-05-24T06:00:02.731Z,1018.93
2018-05-24T06:01:12.705Z,1018.9
2018-05-24T06:02:22.684Z,1018.98
2018-05-24T06:03:32.661Z,1018.99
2018-05-24T06:04:42.675Z,1018.97
2018-05-24T06:05:52.393Z,1019.01
2018-05-24T06:07:02.388Z,1018.97
2018-05-24T06:08:12.399Z,1019.02
2018-05-24T06:09:22.397Z,1018.99
2018-05-24T06:10:32.373Z,1018.98
2018-05-24T06:11:42.338Z,1019
2018-05-24T06:12:52.322Z,1018.98
2018-05-24T06:14:02.040Z,1018.96
2018-05-24T06:15:11.778Z,1018.97
2018-05-24T06:16:22.238Z,1018.97
2018-05-24T06:17:32.005Z,1018.95
2018-05-24T06:18:42.063Z,1019
2018-05-24T06:19:51.528Z,1018.96
2018-05-24T06:21:01.516Z,1018.96
2018-05-24T06:22:11.342Z,1018.94
2018-05-24T06:23:21.342Z,1018.93
2018-05-24T06:24:31.339Z,1018.93
2018-05-24T06:25:41.073Z,1018.95
2018-05-24T06:26:50.542Z,1018.89
2018-05-24T06:28:00.558Z,1018.95
2018-05-24T06:29:10.294Z,1018.86
2018-05-24T06:30:20.333Z,1018.89
2018-05-24T06:31:30.052Z,1018.89
2018-05-24T06:32:40.051Z,1018.91
2018-05-24T06:33:50.126Z,1018.86
2018-05-24T06:35:00.119Z,1018.83
2018-05-24T06:36:10.117Z,1018.88
2018-05-24T06:37:20.251Z,1018.83
2018-05-24T06:38:30.261Z,1018.83
2018-05-24T06:39:40.289Z,1018.83
2018-05-24T06:40:50.124Z,1018.83
2018-05-24T06:42:00.127Z,1018.83
2018-05-24T06:43:10.125Z,1018.87
2018-05-24T06:44:20.133Z,1018.86
2018-05-24T06:45:30.144Z,1018.89
2018-05-24T06:46:40.121Z,1018.93
2018-05-24T06:47:50.119Z,1018.91
2018-05-24T06:49:00.122Z,1018.93
2018-05-24T06:50:10.207Z,1018.9
2018-05-24T06:51:20.448Z,1018.89
2018-05-24T06:52:30.191Z,1018.91
2018-05-24T06:53:40.284Z,1018.89
2018-05-24T06:54:50.611Z,1018.89
2018-05-24T06:56:00.345Z,1018.89
2018-05-24T06:57:10.337Z,1018.89
2018-05-24T06:58:20.365Z,1018.88
2018-05-24T06:59:30.115Z,1018.89
2018-05-24T07:00:39.591Z,1018.95
2018-05-24T07:01:49.330Z,1018.98
2018-05-24T07:02:59.325Z,1018.94
2018-05-24T07:04:09.422Z,1018.97
2018-05-24T07:05:19.244Z,1018.95
2018-05-24T07:06:28.978Z,1018.96
2018-05-24T07:07:38.980Z,1018.95
2018-05-24T07:08:48.729Z,1019
2018-05-24T07:09:58.465Z,1019.01
2018-05-24T07:11:08.484Z,1018.96
2018-05-24T07:12:18.609Z,1018.93
2018-05-24T07:13:28.617Z,1018.95
2018-05-24T07:14:38.614Z,1018.95
2018-05-24T07:15:48.656Z,1018.99
2018-05-24T07:16:58.648Z,1018.97
2018-05-24T07:18:08.653Z,1019.01
2018-05-24T07:19:18.663Z,1019.01
2018-05-24T07:20:28.674Z,1018.94
2018-05-24T07:21:38.680Z,1018.93
2018-05-24T07:22:48.401Z,1018.95
2018-05-24T07:23:58.166Z,1018.99
2018-05-24T07:25:08.194Z,1019.02
2018-05-24T07:26:17.920Z,1019.02
2018-05-24T07:27:27.896Z,1018.98
2018-05-24T07:28:37.648Z,1019.09
2018-05-24T07:29:47.661Z,1019.01
2018-05-24T07:30:57.497Z,1019.02
2018-05-24T07:32:07.509Z,1019.06
2018-05-24T07:33:17.500Z,1019.02
2018-05-24T07:34:27.533Z,1019.08
2018-05-24T07:35:37.530Z,1019.07
2018-05-24T07:36:47.533Z,1019.05
2018-05-24T07:37:57.560Z,1019.09
2018-05-24T07:39:07.025Z,1019.03
2018-05-24T07:40:16.505Z,1019.08
2018-05-24T07:41:26.505Z,1019.05
2018-05-24T07:42:35.990Z,1019.08
2018-05-24T07:43:45.211Z,1019.09
2018-05-24T07:44:55.216Z,1019.11
2018-05-24T07:46:05.177Z,1019.1
2018-05-24T07:47:14.388Z,1019.09
2018-05-24T07:48:24.139Z,1019.07
2018-05-24T07:49:33.911Z,1019.07
2018-05-24T07:50:43.386Z,1019.11
2018-05-24T07:51:53.147Z,1019.1
2018-05-24T07:53:03.167Z,1019.11
2018-05-24T07:54:13.173Z,1019.06
2018-05-24T07:55:22.925Z,1019.11
2018-05-24T07:56:32.697Z,1019.11
2018-05-24T07:57:42.700Z,1019.06
2018-05-24T07:58:52.180Z,1019
2018-05-24T08:00:01.984Z,1019.05
2018-05-24T08:01:11.743Z,1018.99
2018-05-24T08:02:21.546Z,1019.04
2018-05-24T08:03:31.521Z,1019.02
2018-05-24T08:04:41.508Z,1019.06
2018-05-24T08:05:51.261Z,1018.97
2018-05-24T08:07:00.979Z,1018.95
2018-05-24T08:08:10.691Z,1018.98
2018-05-24T08:09:20.413Z,1018.9
2018-05-24T08:10:30.142Z,1018.93
2018-05-24T08:11:40.121Z,1018.89
2018-05-24T08:12:49.860Z,1018.89
2018-05-24T08:13:59.865Z,1018.92
2018-05-24T08:15:09.853Z,1018.95
2018-05-24T08:16:18.797Z,1018.93
2018-05-24T08:17:28.798Z,1018.93
2018-05-24T08:18:38.857Z,1018.98
2018-05-24T08:19:48.887Z,1018.92
2018-05-24T08:20:58.884Z,1018.85
2018-05-24T08:22:08.663Z,1018.9
2018-05-24T08:23:18.760Z,1018.91
2018-05-24T08:24:28.785Z,1018.96
2018-05-24T08:25:38.897Z,1018.9
2018-05-24T08:26:48.362Z,1018.9
2018-05-24T08:27:58.369Z,1018.9
2018-05-24T08:29:08.137Z,1018.82
2018-05-24T08:30:17.630Z,1018.89
2018-05-24T08:31:27.660Z,1018.88
2018-05-24T08:32:37.702Z,1018.89
2018-05-24T08:33:47.697Z,1018.96
2018-05-24T08:34:57.696Z,1018.96
2018-05-24T08:36:07.500Z,1019.01
2018-05-24T08:37:17.258Z,1018.95
2018-05-24T08:38:27.288Z,1018.9
2018-05-24T08:39:37.575Z,1018.9
2018-05-24T08:40:47.642Z,1018.82
2018-05-24T08:41:57.913Z,1018.87
2018-05-24T08:43:07.963Z,1018.87
2018-05-24T08:44:17.429Z,1018.88
2018-05-24T08:45:27.188Z,1018.89
2018-05-24T08:46:37.437Z,1018.9
2018-05-24T08:47:47.475Z,1018.91
2018-05-24T08:48:57.492Z,1018.93
2018-05-24T08:50:07.474Z,1018.93
2018-05-24T08:51:17.496Z,1018.96
2018-05-24T08:52:27.497Z,1018.93
2018-05-24T08:53:37.519Z,1018.91
2018-05-24T08:54:47.268Z,1018.98
2018-05-24T08:55:57.331Z,1018.88
2018-05-24T08:57:07.355Z,1018.94
2018-05-24T08:58:17.140Z,1018.89
2018-05-24T08:59:26.932Z,1018.89
2018-05-24T09:00:36.694Z,1018.88
2018-05-24T09:01:46.684Z,1018.87
2018-05-24T09:02:56.687Z,1018.88
2018-05-24T09:04:06.689Z,1018.87
2018-05-24T09:05:16.726Z,1018.92
2018-05-24T09:06:26.728Z,1018.85
2018-05-24T09:07:36.501Z,1018.84
2018-05-24T09:08:46.485Z,1018.87
2018-05-24T09:09:56.294Z,1018.91
2018-05-24T09:11:05.757Z,1018.98
2018-05-24T09:12:15.758Z,1018.92
2018-05-24T09:13:25.807Z,1018.9
2018-05-24T09:14:35.542Z,1018.88
2018-05-24T09:15:45.294Z,1018.94
2018-05-24T09:16:55.304Z,1018.9
2018-05-24T09:18:05.306Z,1018.9
2018-05-24T09:19:15.286Z,1018.91
2018-05-24T09:20:24.999Z,1018.87
2018-05-24T09:21:34.996Z,1018.83
2018-05-24T09:22:45.189Z,1018.82
2018-05-24T09:23:55.179Z,1018.76
2018-05-24T09:25:05.163Z,1018.74
2018-05-24T09:26:15.168Z,1018.79
2018-05-24T09:27:25.184Z,1018.8
2018-05-24T09:28:35.209Z,1018.81
2018-05-24T09:29:44.986Z,1018.79
2018-05-24T09:30:55.008Z,1018.85
2018-05-24T09:32:04.994Z,1018.84
2018-05-24T09:33:14.999Z,1018.81
2018-05-24T09:34:24.732Z,1018.79
2018-05-24T09:35:33.968Z,1018.79
2018-05-24T09:36:43.959Z,1018.82
2018-05-24T09:37:53.975Z,1018.75
2018-05-24T09:39:03.439Z,1018.81
2018-05-24T09:40:12.655Z,1018.84
2018-05-24T09:41:22.663Z,1018.78
2018-05-24T09:42:32.394Z,1018.72
2018-05-24T09:43:42.406Z,1018.77
2018-05-24T09:44:52.192Z,1018.8
2018-05-24T09:46:01.954Z,1018.78
2018-05-24T09:47:11.697Z,1018.8
2018-05-24T09:48:21.423Z,1018.78
2018-05-24T09:49:31.191Z,1018.86
2018-05-24T09:50:40.709Z,1018.81
2018-05-24T09:51:50.180Z,1018.78
2018-05-24T09:53:00.187Z,1018.78
2018-05-24T09:54:10.184Z,1018.72
2018-05-24T09:55:20.047Z,1018.73
2018-05-24T09:56:30.587Z,1018.81
2018-05-24T09:57:40.066Z,1018.76
2018-05-24T09:58:50.072Z,1018.74
2018-05-24T09:59:59.810Z,1018.74
2018-05-24T10:01:09.804Z,1018.74
2018-05-24T10:02:19.545Z,1018.74
2018-05-24T10:03:29.286Z,1018.73
2018-05-24T10:04:39.393Z,1018.73
2018-05-24T10:05:49.079Z,1018.7
2018-05-24T10:06:59.082Z,1018.73
2018-05-24T10:08:09.141Z,1018.77
2018-05-24T10:09:19.171Z,1018.73
2018-05-24T10:10:28.921Z,1018.73
2018-05-24T10:11:39.120Z,1018.75
2018-05-24T10:12:49.118Z,1018.67
2018-05-24T10:13:58.862Z,1018.62
2018-05-24T10:15:08.663Z,1018.7
2018-05-24T10:16:18.774Z,1018.5
2018-05-24T10:17:29.595Z,1018.31
2018-05-24T10:18:39.612Z,1018.58
2018-05-24T10:19:49.629Z,1018.63
2018-05-24T10:20:59.649Z,1018.56
2018-05-24T10:22:09.477Z,1018.51
2018-05-24T10:23:19.481Z,1018.54
2018-05-24T10:24:29.586Z,1018.49
2018-05-24T10:25:39.563Z,1018.54
2018-05-24T10:26:49.565Z,1018.52
2018-05-24T10:27:59.331Z,1018.49
2018-05-24T10:29:09.413Z,1018.49
2018-05-24T10:30:18.982Z,1018.46
2018-05-24T10:31:29.015Z,1018.45
2018-05-24T10:32:39.031Z,1018.47
2018-05-24T10:33:49.061Z,1018.45
2018-05-24T10:34:59.187Z,1018.38
2018-05-24T10:36:09.226Z,1018.34
2018-05-24T10:37:19.213Z,1018.34
2018-05-24T10:38:29.211Z,1018.33
2018-05-24T10:39:38.729Z,1018.29
2018-05-24T10:40:48.479Z,1018.34
2018-05-24T10:41:58.482Z,1018.37
2018-05-24T10:43:08.484Z,1018.32
2018-05-24T10:44:17.955Z,1018.34
2018-05-24T10:45:27.687Z,1018.34
2018-05-24T10:46:37.689Z,1018.35
2018-05-24T10:47:47.163Z,1018.33
2018-05-24T10:48:56.898Z,1018.39
2018-05-24T10:50:06.726Z,1018.28
2018-05-24T10:51:16.568Z,1018.36
2018-05-24T10:52:26.932Z,1018.34
2018-05-24T10:53:36.682Z,1018.38
2018-05-24T10:54:46.416Z,1018.3
2018-05-24T10:55:56.493Z,1018.32
2018-05-24T10:57:06.586Z,1018.32
2018-05-24T10:58:16.610Z,1018.24
2018-05-24T10:59:26.614Z,1018.29
2018-05-24T11:00:36.528Z,1018.26
2018-05-24T11:01:46.525Z,1018.28
2018-05-24T11:02:56.300Z,1018.17
2018-05-24T11:04:06.674Z,1018.23
2018-05-24T11:05:16.405Z,1018.21
2018-05-24T11:06:25.986Z,1018.25
2018-05-24T11:07:35.794Z,1018.26
2018-05-24T11:08:45.793Z,1018.29
2018-05-24T11:09:55.792Z,1018.3
2018-05-24T11:11:05.792Z,1018.26
2018-05-24T11:12:15.963Z,1018.21
2018-05-24T11:13:25.697Z,1018.2
2018-05-24T11:14:35.715Z,1018.23
2018-05-24T11:15:45.704Z,1018.15
2018-05-24T11:16:55.433Z,1018.1
2018-05-24T11:18:05.422Z,1018.16
2018-05-24T11:19:15.163Z,1018.02
2018-05-24T11:20:25.157Z,1018.08
2018-05-24T11:21:35.146Z,1018.02
2018-05-24T11:22:45.149Z,1018.1
2018-05-24T11:23:55.201Z,1018.15
2018-05-24T11:25:05.231Z,1018.04
2018-05-24T11:26:15.388Z,1018.05
2018-05-24T11:27:25.332Z,1018.01
2018-05-24T11:28:35.356Z,1018
2018-05-24T11:29:45.097Z,1017.99
2018-05-24T11:30:55.119Z,1017.9
2018-05-24T11:32:04.934Z,1018.03
2018-05-24T11:33:15.086Z,1017.89
2018-05-24T11:34:24.314Z,1017.92
2018-05-24T11:35:34.308Z,1017.88
2018-05-24T11:36:43.798Z,1017.94
2018-05-24T11:37:53.786Z,1017.92
2018-05-24T11:39:03.806Z,1017.92
2018-05-24T11:40:13.819Z,1017.95
2018-05-24T11:41:23.600Z,1017.87
2018-05-24T11:42:33.599Z,1017.83
2018-05-24T11:43:43.321Z,1017.73
2018-05-24T11:44:53.314Z,1017.73
2018-05-24T11:46:03.328Z,1017.75
2018-05-24T11:47:13.327Z,1017.76
2018-05-24T11:48:23.060Z,1017.65
2018-05-24T11:49:33.059Z,1017.68
2018-05-24T11:50:42.803Z,1017.72
2018-05-24T11:51:52.876Z,1017.72
2018-05-24T11:53:03.365Z,1017.71
2018-05-24T11:54:13.353Z,1017.68
2018-05-24T11:55:23.088Z,1017.71
2018-05-24T11:56:32.823Z,1017.7
2018-05-24T11:57:42.896Z,1017.59
2018-05-24T11:58:52.879Z,1017.55
2018-05-24T12:00:02.616Z,1017.39
2018-05-24T12:01:12.659Z,1017.45
2018-05-24T12:02:22.406Z,1017.54
2018-05-24T12:03:32.133Z,1017.56
2018-05-24T12:04:41.895Z,1017.57
2018-05-24T12:05:51.888Z,1017.51
2018-05-24T12:07:01.683Z,1017.47
2018-05-24T12:08:11.928Z,1017.44
2018-05-24T12:09:21.928Z,1017.46
2018-05-24T12:10:31.930Z,1017.39
2018-05-24T12:11:41.931Z,1017.4
2018-05-24T12:12:51.932Z,1017.39
2018-05-24T12:14:01.931Z,1017.31
2018-05-24T12:15:11.739Z,1017.32
2018-05-24T12:16:21.693Z,1017.34
2018-05-24T12:17:31.697Z,1017.43
2018-05-24T12:18:41.437Z,1017.41
2018-05-24T12:19:51.429Z,1017.37
2018-05-24T12:21:01.437Z,1017.35
2018-05-24T12:22:11.425Z,1017.24
2018-05-24T12:23:21.161Z,1017.26
2018-05-24T12:24:31.166Z,1017.29
2018-05-24T12:25:40.890Z,1017.33
2018-05-24T12:26:50.617Z,1017.22
2018-05-24T12:28:00.365Z,1017.22
2018-05-24T12:29:10.403Z,1017.33
2018-05-24T12:30:20.717Z,1017.31
2018-05-24T12:31:30.722Z,1017.23
2018-05-24T12:32:40.454Z,1017.23
2018-05-24T12:33:50.442Z,1017.22
2018-05-24T12:35:00.446Z,1017.15
2018-05-24T12:36:10.204Z,1017.1
2018-05-24T12:37:19.947Z,1017.21
2018-05-24T12:38:29.411Z,1017.2
2018-05-24T12:39:39.425Z,1017.19
2018-05-24T12:40:49.468Z,1017.22
2018-05-24T12:41:59.714Z,1017.15
2018-05-24T12:43:09.712Z,1017.24
2018-05-24T12:44:19.705Z,1017.22
2018-05-24T12:45:29.235Z,1017.2
2018-05-24T12:46:38.973Z,1017.16
2018-05-24T12:47:48.970Z,1017.18
2018-05-24T12:48:58.983Z,1017.15
2018-05-24T12:50:09.387Z,1017.18
2018-05-24T12:51:19.373Z,1017.09
2018-05-24T12:52:29.376Z,1017.14
2018-05-24T12:53:39.366Z,1017.04
2018-05-24T12:54:49.101Z,1017.07
2018-05-24T12:55:59.115Z,1017.09
2018-05-24T12:57:09.139Z,1017.07
2018-05-24T12:58:19.164Z,1016.98
2018-05-24T12:59:28.904Z,1016.98
2018-05-24T13:00:38.919Z,1016.95
2018-05-24T13:01:48.930Z,1016.9
2018-05-24T13:02:58.674Z,1016.77
2018-05-24T13:04:08.424Z,1016.88
2018-05-24T13:05:18.858Z,1016.86
2018-05-24T13:06:28.945Z,1016.9
2018-05-24T13:07:39.035Z,1016.81
2018-05-24T13:08:48.760Z,1016.88
2018-05-24T13:09:58.753Z,1016.88
2018-05-24T13:11:08.849Z,1016.82
2018-05-24T13:12:19.191Z,1016.78
2018-05-24T13:13:29.217Z,1016.7
2018-05-24T13:14:38.948Z,1016.69
2018-05-24T13:15:48.701Z,1016.65
2018-05-24T13:16:58.875Z,1016.66
2018-05-24T13:18:08.704Z,1016.55
2018-05-24T13:19:18.708Z,1016.67
2018-05-24T13:20:28.459Z,1016.6
2018-05-24T13:21:38.482Z,1016.67
2018-05-24T13:22:48.247Z,1016.61
2018-05-24T13:23:58.250Z,1016.61
2018-05-24T13:25:07.981Z,1016.59
2018-05-24T13:26:17.467Z,1016.56
2018-05-24T13:27:27.464Z,1016.56
2018-05-24T13:28:37.460Z,1016.47
2018-05-24T13:29:47.532Z,1016.51
2018-05-24T13:30:57.550Z,1016.47
2018-05-24T13:32:07.307Z,1016.49
2018-05-24T13:33:17.036Z,1016.46
2018-05-24T13:34:26.786Z,1016.4
2018-05-24T13:35:37.240Z,1016.42
2018-05-24T13:36:47.243Z,1016.43
2018-05-24T13:37:56.984Z,1016.45
2018-05-24T13:39:06.980Z,1016.35
2018-05-24T13:40:16.962Z,1016.35
2018-05-24T13:41:26.788Z,1016.34
2018-05-24T13:42:36.538Z,1016.38
2018-05-24T13:43:46.544Z,1016.32
2018-05-24T13:44:56.291Z,1016.34
2018-05-24T13:46:06.297Z,1016.31
2018-05-24T13:47:16.310Z,1016.37
2018-05-24T13:48:26.068Z,1016.31
2018-05-24T13:49:36.092Z,1016.29
2018-05-24T13:50:46.087Z,1016.29
2018-05-24T13:51:56.099Z,1016.19
2018-05-24T13:53:06.086Z,1016.2
2018-05-24T13:54:16.089Z,1016.22
2018-05-24T13:55:25.942Z,1016.23
2018-05-24T13:56:35.966Z,1016.22
2018-05-24T13:57:45.986Z,1016.2
2018-05-24T13:58:55.972Z,1016.14
2018-05-24T14:00:05.963Z,1016.29
2018-05-24T14:01:15.965Z,1016.21
2018-05-24T14:02:26.038Z,1016.24
2018-05-24T14:03:36.043Z,1016.2
2018-05-24T14:04:45.780Z,1016.17
2018-05-24T14:05:55.793Z,1016.18
2018-05-24T14:07:05.800Z,1016.2
2018-05-24T14:08:15.284Z,1016.21